Time;durP1;ratioP1;P1;durP2;ratioP2;P2;SDS_P1;SDS_P2;PMS_P1;PMS_P2;Temp;Humidity;BMP_temperature;BMP_pressure;BME280_temperature;BME280_humidity;BME280_pressure;Samples;Min_cycle;Max_cycle;Signal;HPM_P1;HPM_P2
2022/09/01 00:01:33;;;;;;;3.90;3.60;;;;;;;15.89;91.74;95699.66;5020098;28;20501;-61
2022/09/01 00:04:02;;;;;;;3.90;3.53;;;;;;;15.86;92.94;95699.97;5023345;28;20022;-61
2022/09/01 00:06:28;;;;;;;6.43;3.92;;;;;;;15.86;90.63;95694.66;5022084;28;20030;-61
2022/09/01 00:08:56;;;;;;;4.03;3.53;;;;;;;15.95;89.84;95692.81;5018867;28;20037;-62
2022/09/01 00:11:23;;;;;;;3.22;3.03;;;;;;;16.03;89.02;95687.44;5014824;28;20026;-61
2022/09/01 00:13:49;;;;;;;3.15;2.85;;;;;;;16.08;87.95;95689.59;5005894;28;20116;-61
2022/09/01 00:16:17;;;;;;;7.18;2.90;;;;;;;16.06;88.89;95689.75;5019036;28;20026;-61
2022/09/01 00:18:48;;;;;;;5.18;3.17;;;;;;;16.02;88.74;95686.59;5017068;28;20404;-61
2022/09/01 00:21:16;;;;;;;3.33;3.03;;;;;;;16.00;89.41;95693.94;5018752;28;20476;-61
2022/09/01 00:23:41;;;;;;;3.22;3.03;;;;;;;15.97;89.81;95690.81;5018902;28;20111;-61
2022/09/01 00:26:07;;;;;;;3.83;3.53;;;;;;;15.94;89.59;95691.16;5021157;28;20060;-61
2022/09/01 00:28:34;;;;;;;3.25;3.05;;;;;;;15.89;90.43;95689.84;5021085;28;20044;-62
2022/09/01 00:31:01;;;;;;;3.75;3.50;;;;;;;15.84;90.80;95686.06;5022523;28;20053;-61
2022/09/01 00:33:26;;;;;;;5.47;3.10;;;;;;;15.82;90.98;95688.88;5015383;28;20547;-61
2022/09/01 00:35:52;;;;;;;3.85;3.55;;;;;;;15.83;90.92;95692.38;5025471;28;20033;-61
2022/09/01 00:38:17;;;;;;;3.75;3.22;;;;;;;15.78;91.67;95681.41;5016156;28;20026;-61
2022/09/01 00:40:42;;;;;;;7.93;3.83;;;;;;;15.69;92.66;95684.13;5005011;28;20048;-61
2022/09/01 00:43:37;;;;;;;3.67;3.20;;;;;;;15.67;92.89;95687.94;5022950;28;20038;-61
2022/09/01 00:46:05;;;;;;;3.25;3.15;;;;;;;15.65;92.94;95692.59;5009664;28;20050;-61
2022/09/01 00:48:30;;;;;;;3.20;3.00;;;;;;;15.59;93.54;95694.97;5018149;28;20724;-61
2022/09/01 00:50:56;;;;;;;3.10;2.80;;;;;;;15.56;93.70;95694.47;5020860;28;20025;-61
2022/09/01 00:53:22;;;;;;;3.53;3.30;;;;;;;15.50;94.10;95692.50;5021672;28;20404;-61
2022/09/01 00:55:47;;;;;;;3.63;3.33;;;;;;;15.50;93.53;95700.47;5024770;28;20036;-62
2022/09/01 00:58:13;;;;;;;3.67;3.17;;;;;;;15.49;92.81;95702.31;5017969;28;20428;-61
2022/09/01 01:00:39;;;;;;;5.22;2.83;;;;;;;15.49;92.21;95693.50;4997553;28;20038;-61
2022/09/01 01:03:11;;;;;;;4.32;3.50;;;;;;;15.47;91.82;95691.03;5015392;28;20088;-61
2022/09/01 01:05:40;;;;;;;5.07;3.35;;;;;;;15.47;92.18;95699.81;5020867;28;20030;-61
2022/09/01 01:08:07;;;;;;;5.47;3.33;;;;;;;15.44;92.61;95705.47;5014914;28;20445;-61
2022/09/01 01:10:36;;;;;;;6.50;3.78;;;;;;;15.48;92.46;95719.22;5001030;28;20100;-61
2022/09/01 01:13:04;;;;;;;3.47;3.17;;;;;;;15.51;91.44;95707.44;5016541;28;20037;-61
2022/09/01 01:15:30;;;;;;;3.40;3.05;;;;;;;15.45;90.18;95715.09;5016483;28;20029;-62
2022/09/01 01:17:55;;;;;;;4.78;3.35;;;;;;;15.45;89.49;95719.56;5024959;28;20025;-62
2022/09/01 01:23:29;;;;;;;2.92;2.80;;;;;;;15.36;90.72;95736.50;5020450;28;20131;-62
2022/09/01 01:25:58;;;;;;;3.72;3.42;;;;;;;15.36;90.09;95737.31;5014840;28;20106;-61
2022/09/01 01:28:29;;;;;;;7.25;2.80;;;;;;;15.35;90.08;95743.63;5019748;28;20052;-61
2022/09/01 01:31:03;;;;;;;4.55;3.17;;;;;;;15.36;90.25;95741.81;5020213;28;20029;-61
2022/09/01 01:33:40;;;;;;;5.85;2.97;;;;;;;15.31;90.81;95743.16;5014294;28;20026;-61
2022/09/01 01:36:11;;;;;;;3.08;2.90;;;;;;;15.24;91.59;95751.97;5021802;28;20041;-62
2022/09/01 01:38:42;;;;;;;3.40;3.10;;;;;;;15.12;94.09;95757.59;5019240;28;20021;-62
2022/09/01 01:41:08;;;;;;;3.85;3.55;;;;;;;14.97;95.06;95754.00;5021774;28;20079;-62
2022/09/01 01:43:33;;;;;;;4.50;4.10;;;;;;;14.96;95.07;95757.66;5020921;28;20129;-61
2022/09/01 01:46:01;;;;;;;3.50;3.30;;;;;;;14.96;95.03;95763.75;5020197;28;20216;-61
2022/09/01 01:48:28;;;;;;;4.65;3.15;;;;;;;14.90;96.52;95765.25;5025316;28;20037;-61
2022/09/01 01:50:57;;;;;;;4.10;3.85;;;;;;;14.83;96.85;95766.94;5014360;28;20036;-62
2022/09/01 01:53:23;;;;;;;5.40;3.65;;;;;;;14.79;97.94;95762.97;5018973;28;20033;-62
2022/09/01 01:55:48;;;;;;;3.30;3.10;;;;;;;14.84;96.47;95763.28;5012950;28;20497;-62
2022/09/01 01:58:15;;;;;;;4.03;3.42;;;;;;;14.85;99.17;95767.59;4997135;28;20469;-61
2022/09/01 02:00:43;;;;;;;3.67;3.38;;;;;;;14.81;98.39;95770.72;5004005;28;20048;-61
2022/09/01 02:03:11;;;;;;;3.83;3.40;;;;;;;14.76;100.00;95768.59;5013222;28;20045;-62
2022/09/01 02:05:38;;;;;;;3.85;3.63;;;;;;;14.77;98.33;95764.94;5014131;28;20026;-61
2022/09/01 02:08:07;;;;;;;4.18;3.63;;;;;;;14.75;99.30;95759.00;5018901;28;20033;-62
2022/09/01 02:10:37;;;;;;;4.18;3.88;;;;;;;14.68;99.11;95760.59;5019608;28;20026;-61
2022/09/01 02:13:06;;;;;;;5.88;4.68;;;;;;;14.67;99.77;95761.59;5014554;28;20496;-61
2022/09/01 02:15:38;;;;;;;5.32;3.67;;;;;;;14.66;99.94;95765.25;5025494;28;20071;-62
2022/09/01 02:18:05;;;;;;;3.67;3.47;;;;;;;14.67;99.77;95759.78;5007717;28;20026;-62
2022/09/01 02:20:31;;;;;;;4.05;3.70;;;;;;;14.65;99.87;95772.38;5025923;28;20029;-62
2022/09/01 02:22:57;;;;;;;4.03;3.70;;;;;;;14.66;100.00;95767.88;5020318;28;20025;-62
2022/09/01 02:25:22;;;;;;;5.60;3.95;;;;;;;14.62;100.00;95770.06;5018694;28;20110;-62
2022/09/01 02:27:52;;;;;;;3.72;3.47;;;;;;;14.60;100.00;95770.22;5021406;28;20036;-61
2022/09/01 02:30:18;;;;;;;4.03;3.80;;;;;;;14.56;100.00;95763.59;5027407;28;20029;-61
2022/09/01 02:32:43;;;;;;;4.72;4.00;;;;;;;14.56;100.00;95768.06;5019581;28;20400;-61
2022/09/01 02:35:08;;;;;;;4.28;3.97;;;;;;;14.56;100.00;95766.25;5021336;28;20040;-62
2022/09/01 02:37:35;;;;;;;4.75;3.65;;;;;;;14.55;100.00;95764.59;5004798;28;20025;-61
2022/09/01 02:40:01;;;;;;;4.10;3.80;;;;;;;14.53;100.00;95766.59;5019014;28;20038;-62
2022/09/01 02:42:28;;;;;;;5.35;4.15;;;;;;;14.50;100.00;95764.25;5001041;28;20030;-61
2022/09/01 02:44:54;;;;;;;4.47;3.80;;;;;;;14.43;100.00;95764.09;5009461;28;20469;-61
2022/09/01 02:47:22;;;;;;;6.07;4.35;;;;;;;14.40;100.00;95758.28;5024099;28;20045;-62
2022/09/01 02:49:49;;;;;;;3.95;3.63;;;;;;;14.37;100.00;95764.75;5025996;28;20028;-61
2022/09/01 02:52:16;;;;;;;8.68;4.00;;;;;;;14.33;100.00;95768.69;5004256;28;20108;-62
2022/09/01 02:54:44;;;;;;;4.32;4.03;;;;;;;14.35;100.00;95768.53;5023716;28;20497;-61
2022/09/01 02:57:10;;;;;;;4.38;4.03;;;;;;;14.34;100.00;95770.34;5024456;28;20078;-62
2022/09/01 02:59:36;;;;;;;4.25;3.95;;;;;;;14.32;100.00;95775.81;5030768;28;20049;-62
2022/09/01 03:02:01;;;;;;;3.95;3.75;;;;;;;14.32;100.00;95777.63;5020383;28;20030;-61
2022/09/01 03:04:33;;;;;;;4.30;4.00;;;;;;;14.28;100.00;95774.50;5017551;28;20040;-61
2022/09/01 03:07:00;;;;;;;4.40;4.10;;;;;;;14.27;100.00;95770.19;5021615;28;20037;-61
2022/09/01 03:09:25;;;;;;;4.35;4.03;;;;;;;14.31;100.00;95776.81;5021729;28;20053;-62
2022/09/01 03:11:52;;;;;;;8.13;4.40;;;;;;;14.26;100.00;95776.50;5023907;28;20531;-62
2022/09/01 03:14:19;;;;;;;5.30;4.53;;;;;;;14.18;100.00;95773.81;5019845;28;20034;-61
2022/09/01 03:16:44;;;;;;;4.18;3.80;;;;;;;14.11;100.00;95778.09;5027929;28;20064;-61
2022/09/01 03:19:10;;;;;;;4.45;4.13;;;;;;;14.07;100.00;95774.94;5025147;28;20620;-61
2022/09/01 03:21:39;;;;;;;4.07;3.80;;;;;;;14.07;100.00;95768.84;5022489;28;20441;-62
2022/09/01 03:24:07;;;;;;;4.38;4.07;;;;;;;14.11;100.00;95775.44;5020815;28;20040;-62
2022/09/01 03:26:35;;;;;;;6.05;3.85;;;;;;;14.12;100.00;95772.63;5010991;28;20026;-62
2022/09/01 03:29:00;;;;;;;5.75;4.50;;;;;;;14.11;100.00;95768.31;5011151;28;20084;-61
2022/09/01 03:31:27;;;;;;;4.15;3.88;;;;;;;14.07;100.00;95763.53;5011701;28;20061;-61
2022/09/01 03:33:56;;;;;;;4.50;4.10;;;;;;;14.08;100.00;95771.31;5011043;28;20026;-62
2022/09/01 03:36:26;;;;;;;4.32;3.97;;;;;;;14.08;100.00;95760.72;5011544;28;20469;-61
2022/09/01 03:38:52;;;;;;;5.05;4.50;;;;;;;13.99;100.00;95757.22;4993634;28;20037;-61
2022/09/01 03:41:21;;;;;;;8.02;4.20;;;;;;;14.00;100.00;95760.69;5011376;28;20084;-62
2022/09/01 03:43:47;;;;;;;5.03;4.07;;;;;;;14.00;100.00;95766.00;5010114;28;20034;-61
2022/09/01 03:46:23;;;;;;;4.68;4.28;;;;;;;13.99;100.00;95756.41;4993734;28;20038;-61
2022/09/01 03:48:53;;;;;;;4.20;3.90;;;;;;;13.99;100.00;95765.16;5011170;28;20018;-61
2022/09/01 03:51:21;;;;;;;4.57;3.97;;;;;;;13.97;100.00;95753.09;5011205;28;20030;-62
2022/09/01 03:53:47;;;;;;;6.30;4.35;;;;;;;13.97;100.00;95759.19;5000517;28;20385;-62
2022/09/01 03:56:14;;;;;;;4.55;4.07;;;;;;;13.95;100.00;95755.06;5017138;28;20438;-61
2022/09/01 03:58:45;;;;;;;4.22;3.92;;;;;;;13.89;100.00;95761.84;5011210;28;20018;-61
2022/09/01 04:01:11;;;;;;;4.10;3.80;;;;;;;13.80;100.00;95758.31;5011378;28;20026;-62
2022/09/01 04:03:39;;;;;;;4.35;4.05;;;;;;;13.75;100.00;95753.50;5022544;28;20190;-61
2022/09/01 04:06:07;;;;;;;4.80;4.40;;;;;;;13.77;100.00;95749.88;5010809;28;20026;-61
2022/09/01 04:08:33;;;;;;;4.32;3.88;;;;;;;13.78;100.00;95751.53;5010778;28;20018;-62
2022/09/01 04:11:03;;;;;;;4.70;4.30;;;;;;;13.75;100.00;95745.56;5010771;28;20038;-62
2022/09/01 04:13:38;;;;;;;4.32;4.00;;;;;;;13.77;100.00;95749.88;5010676;28;20524;-61
2022/09/01 04:16:09;;;;;;;4.20;3.92;;;;;;;13.80;100.00;95742.44;5010621;28;20097;-61
2022/09/01 04:18:35;;;;;;;5.22;4.13;;;;;;;13.84;100.00;95740.31;5010647;28;20115;-61
2022/09/01 04:21:00;;;;;;;4.65;4.20;;;;;;;13.86;100.00;95747.09;5010261;28;20100;-61
2022/09/01 04:23:29;;;;;;;4.55;4.25;;;;;;;13.79;100.00;95739.94;5020454;28;20071;-61
2022/09/01 04:25:58;;;;;;;4.57;4.28;;;;;;;13.72;100.00;95742.44;5026132;28;20038;-61
2022/09/01 04:28:32;;;;;;;4.45;4.05;;;;;;;13.70;100.00;95739.94;5010308;28;20060;-61
2022/09/01 04:30:57;;;;;;;4.38;4.07;;;;;;;13.66;100.00;95738.59;4994461;28;20049;-61
2022/09/01 04:33:33;;;;;;;4.10;3.80;;;;;;;13.65;100.00;95738.75;4995015;28;20034;-62
2022/09/01 04:35:59;;;;;;;4.80;4.30;;;;;;;13.61;100.00;95738.25;5009892;28;20029;-60
2022/09/01 04:38:28;;;;;;;4.40;4.00;;;;;;;13.58;100.00;95733.28;5011562;28;20025;-61
2022/09/01 04:40:56;;;;;;;4.82;4.47;;;;;;;13.55;100.00;95746.81;5010202;28;20389;-62
2022/09/01 04:43:22;;;;;;;4.60;4.20;;;;;;;13.47;100.00;95750.25;5009947;28;20030;-61
2022/09/01 04:45:50;;;;;;;4.63;4.22;;;;;;;13.46;100.00;95752.09;5010324;28;20100;-62
2022/09/01 04:48:17;;;;;;;6.25;4.32;;;;;;;13.47;100.00;95747.59;5010218;28;20046;-61
2022/09/01 04:50:43;;;;;;;4.82;4.32;;;;;;;13.52;100.00;95752.44;5019955;28;20032;-61
2022/09/01 04:53:11;;;;;;;4.55;4.15;;;;;;;13.52;100.00;95745.34;5009902;28;20895;-61
2022/09/01 04:55:42;;;;;;;5.07;4.30;;;;;;;13.52;100.00;95749.78;5010180;28;20026;-61
2022/09/01 04:58:12;;;;;;;4.68;4.28;;;;;;;13.51;100.00;95750.78;5013659;28;20080;-61
2022/09/01 05:00:39;;;;;;;5.50;4.65;;;;;;;13.48;100.00;95748.44;5009875;28;20022;-61
2022/09/01 05:03:05;;;;;;;5.50;4.30;;;;;;;13.46;100.00;95757.38;5009541;28;20034;-61
2022/09/01 05:05:41;;;;;;;4.95;4.65;;;;;;;13.44;100.00;95754.06;4995529;28;20033;-61
2022/09/01 05:08:12;;;;;;;5.03;4.50;;;;;;;13.39;100.00;95756.31;5009859;28;20048;-61
2022/09/01 05:10:42;;;;;;;6.38;4.35;;;;;;;13.34;100.00;95758.59;5017256;28;20045;-61
2022/09/01 05:13:16;;;;;;;4.85;4.45;;;;;;;13.33;100.00;95759.56;5011185;28;20022;-61
2022/09/01 05:15:45;;;;;;;4.90;4.50;;;;;;;13.37;100.00;95757.47;5010060;28;20033;-61
2022/09/01 05:18:23;;;;;;;5.13;4.72;;;;;;;13.41;100.00;95756.16;5012577;28;20028;-61
2022/09/01 05:20:51;;;;;;;4.72;4.43;;;;;;;13.46;100.00;95761.81;5015215;28;20489;-61
2022/09/01 05:23:20;;;;;;;5.63;5.13;;;;;;;13.49;100.00;95765.97;5014709;28;20049;-61
2022/09/01 05:25:48;;;;;;;5.50;5.10;;;;;;;13.48;100.00;95770.41;5017749;28;20036;-61
2022/09/01 05:28:17;;;;;;;5.70;5.30;;;;;;;13.48;100.00;95770.41;5016531;28;20049;-61
2022/09/01 05:30:44;;;;;;;5.53;5.13;;;;;;;13.50;100.00;95763.19;5011723;28;20591;-61
2022/09/01 05:33:11;;;;;;;8.77;4.90;;;;;;;13.51;100.00;95769.28;5000941;28;20151;-61
2022/09/01 05:35:42;;;;;;;6.97;4.45;;;;;;;13.54;100.00;95761.03;5021050;28;20028;-62
2022/09/01 05:38:11;;;;;;;6.07;4.32;;;;;;;13.59;100.00;95764.03;5026583;28;20038;-61
2022/09/01 05:40:40;;;;;;;5.10;4.60;;;;;;;13.67;100.00;95760.59;5018326;28;20018;-61
2022/09/01 05:43:11;;;;;;;5.00;4.60;;;;;;;13.70;100.00;95757.63;5009292;28;20105;-62
2022/09/01 05:45:40;;;;;;;4.85;4.35;;;;;;;13.78;100.00;95757.66;5015493;28;20393;-62
2022/09/01 05:48:08;;;;;;;5.10;4.10;;;;;;;13.85;100.00;95757.84;5013744;28;20038;-62
2022/09/01 05:50:34;;;;;;;4.03;3.83;;;;;;;13.92;100.00;95755.38;5013413;28;20088;-61
2022/09/01 05:52:59;;;;;;;4.68;4.35;;;;;;;13.97;100.00;95761.84;5002493;28;20025;-62
2022/09/01 05:55:26;;;;;;;5.47;4.38;;;;;;;14.06;100.00;95765.34;5019154;28;20100;-61
2022/09/01 05:57:52;;;;;;;7.15;4.63;;;;;;;14.11;100.00;95764.88;5015521;28;20492;-62
2022/09/01 06:00:19;;;;;;;4.40;4.10;;;;;;;14.18;100.00;95763.22;5025111;28;20028;-62
2022/09/01 06:02:45;;;;;;;4.55;4.15;;;;;;;14.24;100.00;95764.38;5022623;28;20038;-61
2022/09/01 06:05:14;;;;;;;5.80;3.58;;;;;;;14.29;100.00;95762.91;5015294;28;20084;-62
2022/09/01 06:07:41;;;;;;;11.38;4.32;;;;;;;14.33;100.00;95764.25;5026831;28;20071;-62
2022/09/01 06:10:08;;;;;;;4.32;3.90;;;;;;;14.35;100.00;95758.75;5025807;28;20462;-62
2022/09/01 06:12:33;;;;;;;4.43;4.13;;;;;;;14.43;100.00;95753.50;5017489;28;20405;-62
2022/09/01 06:15:00;;;;;;;4.68;3.95;;;;;;;14.53;100.00;95755.13;5012926;28;20033;-62
2022/09/01 06:17:27;;;;;;;6.88;3.80;;;;;;;14.61;100.00;95755.97;5012689;28;20548;-62
2022/09/01 06:19:56;;;;;;;4.50;3.90;;;;;;;14.70;100.00;95750.66;5013840;28;20080;-63
2022/09/01 06:22:25;;;;;;;5.43;4.32;;;;;;;14.75;100.00;95751.03;5013062;28;20033;-63
2022/09/01 06:24:53;;;;;;;4.65;4.35;;;;;;;14.82;100.00;95746.72;5022569;28;20026;-63
2022/09/01 06:27:19;;;;;;;4.13;3.85;;;;;;;14.96;100.00;95749.69;5012555;28;20599;-63
2022/09/01 06:29:53;;;;;;;4.40;4.00;;;;;;;14.93;100.00;95742.91;5012945;28;20097;-63
2022/09/01 06:32:19;;;;;;;4.53;3.93;;;;;;;14.86;100.00;95750.69;5012410;28;20102;-63
2022/09/01 06:34:50;;;;;;;3.72;3.38;;;;;;;14.84;100.00;95747.38;5012416;28;20105;-63
2022/09/01 06:37:21;;;;;;;3.83;3.58;;;;;;;14.95;98.69;95748.03;5016000;28;20028;-63
2022/09/01 06:39:47;;;;;;;3.53;3.20;;;;;;;15.12;97.38;95751.50;5021220;28;20033;-63
2022/09/01 06:42:12;;;;;;;6.32;4.13;;;;;;;15.24;96.05;95749.31;5012235;28;20068;-63
2022/09/01 06:44:39;;;;;;;3.95;3.60;;;;;;;15.38;95.50;95742.47;5012478;28;20425;-63
2022/09/01 06:47:06;;;;;;;3.72;3.42;;;;;;;15.56;95.25;95742.22;4996075;28;20046;-63
2022/09/01 06:49:33;;;;;;;4.13;3.28;;;;;;;15.81;93.52;95748.25;5000386;28;20030;-62
2022/09/01 06:51:59;;;;;;;4.03;3.28;;;;;;;16.02;92.10;95750.34;4993037;28;20034;-63
2022/09/01 06:54:25;;;;;;;3.50;3.28;;;;;;;16.30;90.47;95751.66;5004962;28;20026;-63
2022/09/01 06:56:52;;;;;;;3.33;3.10;;;;;;;16.59;88.71;95748.31;4993339;28;20105;-63
2022/09/01 06:59:18;;;;;;;3.00;2.90;;;;;;;16.83;87.30;95756.25;4991950;28;20398;-63
2022/09/01 07:01:43;;;;;;;3.42;3.20;;;;;;;17.02;85.68;95749.63;4997409;28;20079;-62
2022/09/01 07:04:09;;;;;;;5.00;3.38;;;;;;;17.04;86.41;95742.28;4999766;28;20060;-63
2022/09/01 07:06:35;;;;;;;4.07;3.15;;;;;;;17.18;85.99;95741.50;4992368;28;20046;-63
2022/09/01 07:09:01;;;;;;;3.53;3.30;;;;;;;17.57;84.67;95739.56;4992446;28;20109;-63
2022/09/01 07:11:31;;;;;;;3.72;3.42;;;;;;;17.89;81.00;95739.34;4992676;28;20019;-63
2022/09/01 07:14:02;;;;;;;3.85;3.45;;;;;;;18.39;77.08;95749.31;4992439;28;20105;-63
2022/09/01 07:16:33;;;;;;;6.93;2.75;;;;;;;18.85;76.12;95748.94;4992519;28;20022;-63
2022/09/01 07:19:00;;;;;;;2.88;2.67;;;;;;;18.94;74.36;95744.28;4992165;28;20038;-63
2022/09/01 07:21:28;;;;;;;4.47;3.00;;;;;;;19.17;74.48;95751.25;4992690;28;20023;-63
2022/09/01 07:23:54;;;;;;;2.85;2.75;;;;;;;19.44;73.28;95749.59;4997827;28;20034;-63
2022/09/01 07:26:21;;;;;;;5.07;3.17;;;;;;;19.64;71.17;95751.53;5005961;28;20033;-63
2022/09/01 07:28:52;;;;;;;3.30;3.00;;;;;;;19.56;71.64;95749.84;5009766;28;20022;-62
2022/09/01 07:31:20;;;;;;;4.10;3.20;;;;;;;19.53;73.27;95752.09;4999814;28;20033;-63
2022/09/01 07:33:48;;;;;;;2.83;2.63;;;;;;;19.57;73.78;95756.03;5009434;28;20464;-63
2022/09/01 07:36:15;;;;;;;3.63;3.35;;;;;;;19.65;73.50;95763.03;5010513;28;20107;-63
2022/09/01 07:38:41;;;;;;;3.30;3.10;;;;;;;19.65;74.55;95757.69;5007907;28;20034;-62
2022/09/01 07:41:08;;;;;;;3.90;2.95;;;;;;;19.78;74.10;95759.59;5010061;28;20061;-63
2022/09/01 07:43:33;;;;;;;4.35;3.03;;;;;;;19.85;72.89;95760.47;5008800;28;20030;-63
2022/09/01 07:46:04;;;;;;;5.22;3.28;;;;;;;20.25;70.74;95754.47;5008274;28;20026;-63
2022/09/01 07:48:29;;;;;;;3.42;3.08;;;;;;;20.52;70.94;95751.84;5023331;28;20078;-63
2022/09/01 07:50:56;;;;;;;3.53;2.85;;;;;;;20.49;71.11;95753.09;5017709;28;20072;-62
2022/09/01 07:53:32;;;;;;;3.13;2.92;;;;;;;20.45;69.14;95759.88;5027776;28;20400;-63
2022/09/01 07:56:05;;;;;;;3.17;2.60;;;;;;;20.63;70.63;95751.25;5017663;28;20033;-63
2022/09/01 07:58:32;;;;;;;3.55;3.15;;;;;;;20.82;70.21;95749.66;5016279;28;20492;-63
2022/09/01 08:01:01;;;;;;;3.55;3.25;;;;;;;20.77;68.77;95741.41;5023521;28;20680;-63
2022/09/01 08:03:27;;;;;;;3.15;2.95;;;;;;;20.83;68.92;95747.81;5025413;28;20080;-63
2022/09/01 08:05:56;;;;;;;3.22;3.03;;;;;;;20.85;68.18;95738.53;5026055;28;20108;-62
2022/09/01 08:08:22;;;;;;;3.65;3.35;;;;;;;21.16;67.04;95733.59;5021999;28;20091;-63
2022/09/01 08:10:47;;;;;;;3.60;3.30;;;;;;;21.63;65.22;95743.38;5025006;28;20061;-63
2022/09/01 08:13:14;;;;;;;3.25;3.00;;;;;;;22.16;63.97;95743.22;5023415;28;20096;-63
2022/09/01 08:15:39;;;;;;;3.38;3.17;;;;;;;22.22;63.65;95738.88;5026949;28;20485;-63
2022/09/01 08:18:05;;;;;;;3.38;3.17;;;;;;;22.36;61.98;95738.75;5025098;28;20063;-63
2022/09/01 08:20:33;;;;;;;3.10;2.70;;;;;;;22.69;62.84;95743.94;5028414;28;20014;-63
2022/09/01 08:23:00;;;;;;;3.63;2.95;;;;;;;22.74;61.67;95737.94;5027047;28;20102;-63
2022/09/01 08:25:25;;;;;;;5.97;3.17;;;;;;;22.79;61.50;95729.25;5026713;28;20021;-63
2022/09/01 08:27:50;;;;;;;4.38;3.20;;;;;;;22.84;61.27;95727.53;5025863;28;20730;-63
2022/09/01 08:30:16;;;;;;;11.52;3.20;;;;;;;22.85;60.36;95723.78;5028071;28;20017;-63
2022/09/01 08:32:41;;;;;;;3.22;3.00;;;;;;;22.54;62.66;95728.16;5027007;28;20021;-62
2022/09/01 08:35:12;;;;;;;3.03;2.83;;;;;;;22.68;61.79;95736.13;5027322;28;20032;-63
2022/09/01 08:37:38;;;;;;;3.50;3.20;;;;;;;22.73;60.72;95728.25;5024131;28;20029;-63
2022/09/01 08:40:10;;;;;;;8.45;3.30;;;;;;;22.95;59.76;95725.19;5024879;28;20025;-62
2022/09/01 08:42:48;;;;;;;3.13;2.92;;;;;;;23.23;58.15;95726.56;5028200;28;20455;-63
2022/09/01 08:45:30;;;;;;;4.40;3.45;;;;;;;23.43;58.58;95727.22;5021795;28;20029;-63
2022/09/01 08:48:06;;;;;;;3.70;3.40;;;;;;;23.38;58.32;95732.47;5025022;28;20598;-62
2022/09/01 08:50:33;;;;;;;3.53;3.22;;;;;;;23.88;56.60;95727.97;5020171;28;20469;-62
2022/09/01 08:53:39;;;;;;;3.30;3.00;;;;;;;23.68;56.25;95726.34;5019191;28;20032;-62
2022/09/01 08:56:08;;;;;;;3.22;3.03;;;;;;;23.28;58.80;95738.34;5018544;28;20504;-62
2022/09/01 08:58:33;;;;;;;3.53;3.10;;;;;;;23.12;59.63;95737.00;5023211;28;20030;-62
2022/09/01 09:01:03;;;;;;;5.45;3.28;;;;;;;23.39;58.72;95734.09;5018412;28;20076;-62
2022/09/01 09:03:58;;;;;;;4.00;3.65;;;;;;;23.35;57.96;95735.59;5013521;28;20056;-62
2022/09/01 09:06:24;;;;;;;;;;;;;;;23.37;56.74;95736.19;5017630;28;20033;-63
2022/09/01 09:08:58;;;;;;;3.60;3.28;;;;;;;23.55;57.48;95734.56;5011591;28;19928;-62
2022/09/01 09:11:39;;;;;;;3.43;3.13;;;;;;;23.23;58.64;95729.25;5015277;28;20145;-63
2022/09/01 09:14:28;;;;;;;3.58;3.35;;;;;;;23.09;58.86;95734.75;5001572;28;20276;-63
2022/09/01 09:16:56;;;;;;;3.10;2.90;;;;;;;22.92;59.29;95731.00;4978638;28;20038;-63
2022/09/01 09:19:26;;;;;;;4.53;3.35;;;;;;;22.96;59.04;95729.50;5014311;28;20030;-63
2022/09/01 09:21:55;;;;;;;3.17;2.97;;;;;;;22.79;60.73;95729.25;5017453;28;20057;-63
2022/09/01 09:24:54;;;;;;;3.50;3.20;;;;;;;22.84;60.15;95726.72;5025291;28;20751;-63
2022/09/01 09:27:33;;;;;;;3.15;2.95;;;;;;;22.99;59.14;95726.38;5030567;28;20026;-62
2022/09/01 09:30:05;;;;;;;3.53;3.22;;;;;;;22.78;60.08;95727.59;5027106;28;20042;-62
2022/09/01 09:32:49;;;;;;;3.35;2.97;;;;;;;22.67;61.60;95724.56;5028437;28;20530;-62
2022/09/01 09:35:32;;;;;;;3.10;2.80;;;;;;;23.12;59.51;95723.59;5031212;28;20029;-63
2022/09/01 09:38:17;;;;;;;3.50;3.20;;;;;;;23.14;59.41;95721.50;5020912;28;20061;-63
2022/09/01 09:41:00;;;;;;;3.47;3.22;;;;;;;23.26;58.17;95715.41;5031027;28;20032;-62
2022/09/01 09:43:28;;;;;;;3.35;3.15;;;;;;;23.25;59.33;95711.06;5019922;28;20038;-63
2022/09/01 09:46:31;;;;;;;3.63;3.35;;;;;;;23.50;57.48;95712.91;5024514;28;20699;-63
2022/09/01 09:49:09;;;;;;;3.08;2.88;;;;;;;23.45;56.70;95706.34;5031303;28;20099;-62
2022/09/01 09:51:35;;;;;;;4.05;3.05;;;;;;;23.27;57.93;95698.25;5020463;28;20512;-62
2022/09/01 09:54:31;;;;;;;3.08;2.88;;;;;;;22.99;58.28;95694.16;5023952;28;20119;-63
2022/09/01 09:57:10;;;;;;;4.57;3.10;;;;;;;23.34;58.17;95699.03;5003848;28;20116;-63
2022/09/01 09:59:57;;;;;;;3.78;3.38;;;;;;;23.59;56.22;95703.53;5029544;28;20507;-63
2022/09/01 10:02:36;;;;;;;3.00;2.80;;;;;;;23.84;56.10;95697.22;5020667;28;20057;-63
2022/09/01 10:05:35;;;;;;;3.10;2.90;;;;;;;24.12;56.74;95693.16;5028602;28;20619;-63
2022/09/01 10:08:01;;;;;;;3.83;3.00;;;;;;;24.29;54.56;95690.66;5028502;28;20109;-63
2022/09/01 10:10:44;;;;;;;3.08;2.88;;;;;;;24.35;55.40;95686.22;5023498;28;20029;-63
2022/09/01 10:13:16;;;;;;;5.38;3.03;;;;;;;24.51;54.05;95682.88;5021476;28;20026;-63
2022/09/01 10:16:23;;;;;;;4.13;2.97;;;;;;;24.63;52.31;95666.75;5020611;28;20100;-63
2022/09/01 10:18:50;;;;;;;5.45;3.17;;;;;;;24.68;53.86;95669.56;5004515;28;20034;-65
2022/09/01 10:21:22;;;;;;;2.92;2.72;;;;;;;24.97;52.69;95661.66;5024085;28;20034;-64
2022/09/01 10:23:48;;;;;;;4.45;2.85;;;;;;;25.26;49.81;95656.38;5028652;28;20665;-62
2022/09/01 10:26:22;;;;;;;2.83;2.63;;;;;;;25.32;51.39;95655.44;5014957;28;20021;-63
2022/09/01 10:29:11;;;;;;;3.47;3.20;;;;;;;25.22;50.99;95655.22;5011661;28;20041;-62
2022/09/01 10:31:39;;;;;;;2.67;2.58;;;;;;;24.86;50.60;95657.91;4989849;28;20409;-73
2022/09/01 10:34:06;;;;;;;3.42;3.08;;;;;;;25.11;51.42;95656.03;5028572;28;20032;-73
2022/09/01 10:36:35;;;;;;;2.83;2.63;;;;;;;24.91;49.86;95651.03;5030526;28;20049;-72
2022/09/01 10:39:02;;;;;;;3.22;3.00;;;;;;;24.77;51.72;95645.06;5030105;28;20033;-70
2022/09/01 10:41:49;;;;;;;5.13;3.25;;;;;;;25.07;50.39;95644.91;5030994;28;20034;-70
2022/09/01 10:44:33;;;;;;;3.08;2.88;;;;;;;25.81;47.58;95648.88;5016896;28;20033;-71
2022/09/01 10:47:25;;;;;;;3.67;2.85;;;;;;;25.55;49.93;95644.88;5027202;28;20484;-74
2022/09/01 10:49:51;;;;;;;2.90;2.70;;;;;;;26.02;49.79;95644.72;5030343;28;20578;-75
2022/09/01 10:52:42;;;;;;;2.83;2.70;;;;;;;26.49;47.93;95645.56;5017682;28;20049;-69
2022/09/01 10:55:20;;;;;;;2.75;2.60;;;;;;;26.63;47.25;95639.81;4988465;28;20040;-68
2022/09/01 10:58:23;;;;;;;3.08;2.80;;;;;;;26.73;46.33;95642.69;5015237;28;20034;-67
2022/09/01 11:00:51;;;;;;;6.38;2.70;;;;;;;26.42;46.23;95644.91;5011687;28;20022;-69
2022/09/01 11:03:17;;;;;;;5.82;2.60;;;;;;;26.36;45.96;95644.00;5014822;28;20026;-67
2022/09/01 11:05:52;;;;;;;3.90;2.58;;;;;;;26.60;46.11;95644.66;5019923;28;20104;-67
2022/09/01 11:08:23;;;;;;;3.20;2.67;;;;;;;26.10;47.84;95640.81;5015337;28;20060;-68
2022/09/01 11:11:20;;;;;;;2.75;2.55;;;;;;;26.19;46.98;95637.75;5015429;28;20037;-68
2022/09/01 11:13:48;;;;;;;2.85;2.45;;;;;;;25.99;46.34;95634.41;5018365;28;20477;-67
2022/09/01 11:16:36;;;;;;;2.70;2.47;;;;;;;26.23;48.04;95636.19;5013325;28;20064;-67
2022/09/01 11:19:20;;;;;;;2.80;2.60;;;;;;;26.60;44.95;95628.44;5013180;28;20026;-68
2022/09/01 11:21:46;;;;;;;2.50;2.30;;;;;;;27.22;44.90;95630.47;5024066;28;20547;-68
2022/09/01 11:24:43;;;;;;;2.33;2.22;;;;;;;27.21;42.96;95626.94;5007440;28;20025;-68
2022/09/01 11:27:12;;;;;;;2.42;2.22;;;;;;;27.62;41.93;95631.25;5023219;28;20068;-68
2022/09/01 11:29:59;;;;;;;2.75;2.30;;;;;;;27.19;43.32;95634.50;5017818;28;20029;-68
2022/09/01 11:32:31;;;;;;;2.80;2.60;;;;;;;27.24;43.17;95626.44;5029545;28;20029;-68
2022/09/01 11:35:00;;;;;;;2.35;2.25;;;;;;;27.65;42.22;95619.97;5025045;28;20620;-69
2022/09/01 11:37:26;;;;;;;2.30;2.00;;;;;;;27.85;42.16;95617.47;5019263;28;20014;-69
2022/09/01 11:39:57;;;;;;;2.30;2.10;;;;;;;27.89;42.23;95615.06;5023305;28;20026;-68
2022/09/01 11:42:38;;;;;;;3.85;2.05;;;;;;;28.08;39.78;95612.84;4998320;28;20045;-67
2022/09/01 11:45:17;;;;;;;3.33;1.90;;;;;;;28.44;39.23;95609.69;5009824;28;20459;-68
2022/09/01 11:47:45;;;;;;;2.00;1.90;;;;;;;28.62;40.42;95603.03;5011181;28;20530;-67
2022/09/01 11:50:21;;;;;;;3.80;2.00;;;;;;;28.71;38.93;95601.47;5025469;28;20961;-66